Maribel — LAGU6 — position and weather

sailwx.info

Track history (hours):
 
Tides and Currents Weather Stations Pressure Air Temp Water Temp Dewpoint Dewpoint Depression Visibility Wind Speed Wind Dir Waves Ship Positions

Maribel

Last reported at 2016-Feb-06 15:32 UTC. Time now 2016-Feb-06 15:37 UTC.
Position N 51°16' E 004°21'.

Length 228 m; draft 8.4 m.

Type: Ship. MMSI: 257872000.

Date/timePositionNaut miles runAvg speedWind from/ knotsBaromVisibWave heightAir tempDewpointWater temp
2016-Feb-06 15:32N 51°16' E 004°21'0 0.0
2016-Feb-06 14:32N 51°16' E 004°21'0 0.0
2016-Feb-06 13:28N 51°16' E 004°21'0 0.0
2016-Feb-06 12:31N 51°16' E 004°21'0 0.0
2016-Feb-06 11:33N 51°16' E 004°21'0 0.0
2016-Feb-06 10:33N 51°16' E 004°21'0 0.0
2016-Feb-06 09:32N 51°16' E 004°21'0 0.0
2016-Feb-06 08:32N 51°16' E 004°21'0 0.0
2016-Feb-06 07:32N 51°16' E 004°21'0 0.0
2016-Feb-06 06:31N 51°16' E 004°21'0 0.0
2016-Feb-06 05:31N 51°16' E 004°21'0 0.0
2016-Feb-06 04:33N 51°16' E 004°21'0 0.0
2016-Feb-06 03:33N 51°16' E 004°21'0 0.0
2016-Feb-06 02:32N 51°16' E 004°21'0 0.0
2016-Feb-06 01:32N 51°16' E 004°21'0 0.0
2016-Feb-06 00:32N 51°16' E 004°21'0 0.0
2016-Feb-05 23:31N 51°16' E 004°21'0 0.0
2016-Feb-05 22:31N 51°16' E 004°21'0 0.0
2016-Feb-05 21:33N 51°16' E 004°21'0 0.0
2016-Feb-05 20:33N 51°16' E 004°21'0 0.0
2016-Feb-05 19:32N 51°16' E 004°21'0 0.0
2016-Feb-05 18:32N 51°16' E 004°21'0 0.0
2016-Feb-05 17:32N 51°16' E 004°21'0 0.0
2016-Feb-05 16:31N 51°16' E 004°21'0 0.0
2016-Feb-05 15:31N 51°16' E 004°21'0 0.0
2016-Feb-05 14:30N 51°16' E 004°21'0 0.0
2016-Feb-05 13:30N 51°16' E 004°21'0 0.0
2016-Feb-05 12:32N 51°16' E 004°21'0 0.0
2016-Feb-05 11:32N 51°16' E 004°21'0 0.0
2016-Feb-05 10:32N 51°16' E 004°21'0 0.0
2016-Feb-05 09:31N 51°16' E 004°21'0 0.0
2016-Feb-05 08:31N 51°16' E 004°21'0 0.0
2016-Feb-05 07:33N 51°16' E 004°21'0 0.0
2016-Feb-05 06:33N 51°16' E 004°21'0 0.0
2016-Feb-05 05:32N 51°16' E 004°21'0 0.0
2016-Feb-05 04:32N 51°16' E 004°21'0 0.0
2016-Feb-05 03:32N 51°16' E 004°21'0 0.0
2016-Feb-05 02:31N 51°16' E 004°21'0 0.0
2016-Feb-05 01:31N 51°16' E 004°21'0 0.0
2016-Feb-05 00:30N 51°16' E 004°21'0 0.0
2016-Feb-04 23:33N 51°16' E 004°21'0 0.0
2016-Feb-04 22:32N 51°16' E 004°21'0 0.0
2016-Feb-04 21:32N 51°16' E 004°21'0 0.0
2016-Feb-04 20:31N 51°16' E 004°21'0 0.0
2016-Feb-04 19:31N 51°16' E 004°21'0 0.0
2016-Feb-04 18:31N 51°16' E 004°21'0 0.0
2016-Feb-04 17:33N 51°16' E 004°21'0 0.0
2016-Feb-04 16:33N 51°16' E 004°21'0 0.0
2016-Feb-04 15:32N 51°16' E 004°21'0 0.0
2016-Feb-04 14:26N 51°16' E 004°21'0 0.0
2016-Feb-04 13:25N 51°16' E 004°21'0 0.0
2016-Feb-04 12:31N 51°16' E 004°21'0 0.0
2016-Feb-04 11:31N 51°16' E 004°21'0 0.0
2016-Feb-04 10:33N 51°16' E 004°21'0 0.0
2016-Feb-04 09:33N 51°16' E 004°21'0 0.0
2016-Feb-04 08:32N 51°16' E 004°21'0 0.0
2016-Feb-04 07:32N 51°16' E 004°21'0 0.0
2016-Feb-04 06:33N 51°16' E 004°21'0 0.4
2016-Feb-04 05:33N 51°16' E 004°21'6 0.1
2016-Feb-02 10:33N 51°21' E 004°18'1 0.7
2016-Feb-02 09:33N 51°21' E 004°17'0 0.1
2016-Feb-02 08:34N 51°21' E 004°17'5 5.1
2016-Feb-02 07:33N 51°23' E 004°10'8 7.7
2016-Feb-02 06:33N 51°25' E 003°58'10 9.6
2016-Feb-02 05:33N 51°24' E 003°42'10 9.6
2016-Feb-02 04:34N 51°25' E 003°27'1010.1
2016-Feb-02 03:33N 51°24' E 003°11'8 7.8
2016-Feb-02 02:34N 51°25' E 002°59'5 5.1
2016-Feb-02 01:32N 51°25' E 002°50'6 6.2
2016-Feb-02 00:33N 51°22' E 002°42'1010.4
2016-Feb-01 23:33N 51°21' E 002°26'1010.0
2016-Feb-01 22:33N 51°18' E 002°10'1010.0
2016-Feb-01 21:33N 51°26' E 001°59'1010.1
2016-Feb-01 20:33N 51°34' E 002°10'10 9.5
2016-Feb-01 19:32N 51°41' E 002°20'462 9.4
2016-Jan-30 18:33N 57°51' E 010°20'10 9.5
2016-Jan-30 17:33N 57°50' E 010°38'9 9.6
2016-Jan-30 16:33N 57°42' E 010°47'1111.3
2016-Jan-30 15:33N 57°34' E 011°03'1312.7
2016-Jan-30 14:33N 57°29' E 011°24'1212.5
2016-Jan-30 13:33N 57°18' E 011°33'1514.8
2016-Jan-30 12:33N 57°04' E 011°42'1212.3
2016-Jan-30 11:33N 56°52' E 011°49'1211.0
2016-Jan-30 10:29N 56°40' E 011°49'8510.6
2016-Jan-30 02:31N 55°20' E 011°02'8 8.6
2016-Jan-30 01:33N 55°11' E 011°03'8 8.2
2016-Jan-30 00:33N 55°03' E 010°60'10 9.9
2016-Jan-29 23:33N 54°54' E 010°52'10 9.8
2016-Jan-29 22:33N 54°45' E 010°48'10 9.7
2016-Jan-29 21:33N 54°37' E 010°57'1010.5
2016-Jan-29 20:33N 54°35' E 011°15'1111.2
2016-Jan-29 19:33N 54°30' E 011°32'1110.6
2016-Jan-29 18:33N 54°27' E 011°50'1110.7
2016-Jan-29 17:33N 54°26' E 012°08'6010.1
2016-Jan-29 11:33N 54°59' E 013°37'1111.3
2016-Jan-29 10:33N 55°02' E 013°55'1110.7
2016-Jan-29 09:33N 55°08' E 014°11'1111.1
2016-Jan-29 08:34N 55°17' E 014°23'1111.1
2016-Jan-29 07:33N 55°26' E 014°35'1111.2
2016-Jan-29 06:33N 55°31' E 014°52'1111.3
2016-Jan-29 05:33N 55°36' E 015°10'1111.3
2016-Jan-29 04:33N 55°40' E 015°29'35110.3
2016-Jan-27 18:32N 59°39' E 023°29'  
Track history (hours):
 
Tides and Currents Weather Stations Pressure Air Temp Water Temp Dewpoint Dewpoint Depression Visibility Wind Speed Wind Dir Waves Ship Positions

Maribel

Last reported at 2016-Feb-06 15:32 UTC. Time now 2016-Feb-06 15:37 UTC.
Position N 51°16' E 004°21'.

Length 228 m; draft 8.4 m.

Type: Ship. MMSI: 257872000.

Date/timePositionNaut miles runAvg speedWind from/ knotsBaromVisibWave heightAir tempDewpointWater temp
2016-Feb-06 15:32N 51°16' E 004°21'0 0.0
2016-Feb-06 14:32N 51°16' E 004°21'0 0.0
2016-Feb-06 13:28N 51°16' E 004°21'0 0.0
2016-Feb-06 12:31N 51°16' E 004°21'0 0.0
2016-Feb-06 11:33N 51°16' E 004°21'0 0.0
2016-Feb-06 10:33N 51°16' E 004°21'0 0.0
2016-Feb-06 09:32N 51°16' E 004°21'0 0.0
2016-Feb-06 08:32N 51°16' E 004°21'0 0.0
2016-Feb-06 07:32N 51°16' E 004°21'0 0.0
2016-Feb-06 06:31N 51°16' E 004°21'0 0.0
2016-Feb-06 05:31N 51°16' E 004°21'0 0.0
2016-Feb-06 04:33N 51°16' E 004°21'0 0.0
2016-Feb-06 03:33N 51°16' E 004°21'0 0.0
2016-Feb-06 02:32N 51°16' E 004°21'0 0.0
2016-Feb-06 01:32N 51°16' E 004°21'0 0.0
2016-Feb-06 00:32N 51°16' E 004°21'0 0.0
2016-Feb-05 23:31N 51°16' E 004°21'0 0.0
2016-Feb-05 22:31N 51°16' E 004°21'0 0.0
2016-Feb-05 21:33N 51°16' E 004°21'0 0.0
2016-Feb-05 20:33N 51°16' E 004°21'0 0.0
2016-Feb-05 19:32N 51°16' E 004°21'0 0.0
2016-Feb-05 18:32N 51°16' E 004°21'0 0.0
2016-Feb-05 17:32N 51°16' E 004°21'0 0.0
2016-Feb-05 16:31N 51°16' E 004°21'0 0.0
2016-Feb-05 15:31N 51°16' E 004°21'0 0.0
2016-Feb-05 14:30N 51°16' E 004°21'0 0.0
2016-Feb-05 13:30N 51°16' E 004°21'0 0.0
2016-Feb-05 12:32N 51°16' E 004°21'0 0.0
2016-Feb-05 11:32N 51°16' E 004°21'0 0.0
2016-Feb-05 10:32N 51°16' E 004°21'0 0.0
2016-Feb-05 09:31N 51°16' E 004°21'0 0.0
2016-Feb-05 08:31N 51°16' E 004°21'0 0.0
2016-Feb-05 07:33N 51°16' E 004°21'0 0.0
2016-Feb-05 06:33N 51°16' E 004°21'0 0.0
2016-Feb-05 05:32N 51°16' E 004°21'0 0.0
2016-Feb-05 04:32N 51°16' E 004°21'0 0.0
2016-Feb-05 03:32N 51°16' E 004°21'0 0.0
2016-Feb-05 02:31N 51°16' E 004°21'0 0.0
2016-Feb-05 01:31N 51°16' E 004°21'0 0.0
2016-Feb-05 00:30N 51°16' E 004°21'0 0.0
2016-Feb-04 23:33N 51°16' E 004°21'0 0.0
2016-Feb-04 22:32N 51°16' E 004°21'0 0.0
2016-Feb-04 21:32N 51°16' E 004°21'0 0.0
2016-Feb-04 20:31N 51°16' E 004°21'0 0.0
2016-Feb-04 19:31N 51°16' E 004°21'0 0.0
2016-Feb-04 18:31N 51°16' E 004°21'0 0.0
2016-Feb-04 17:33N 51°16' E 004°21'0 0.0
2016-Feb-04 16:33N 51°16' E 004°21'0 0.0
2016-Feb-04 15:32N 51°16' E 004°21'0 0.0
2016-Feb-04 14:26N 51°16' E 004°21'0 0.0
2016-Feb-04 13:25N 51°16' E 004°21'0 0.0
2016-Feb-04 12:31N 51°16' E 004°21'0 0.0
2016-Feb-04 11:31N 51°16' E 004°21'0 0.0
2016-Feb-04 10:33N 51°16' E 004°21'0 0.0
2016-Feb-04 09:33N 51°16' E 004°21'0 0.0
2016-Feb-04 08:32N 51°16' E 004°21'0 0.0
2016-Feb-04 07:32N 51°16' E 004°21'0 0.0
2016-Feb-04 06:33N 51°16' E 004°21'0 0.4
2016-Feb-04 05:33N 51°16' E 004°21'6 0.1
2016-Feb-02 10:33N 51°21' E 004°18'1 0.7
2016-Feb-02 09:33N 51°21' E 004°17'0 0.1
2016-Feb-02 08:34N 51°21' E 004°17'5 5.1
2016-Feb-02 07:33N 51°23' E 004°10'8 7.7
2016-Feb-02 06:33N 51°25' E 003°58'10 9.6
2016-Feb-02 05:33N 51°24' E 003°42'10 9.6
2016-Feb-02 04:34N 51°25' E 003°27'1010.1
2016-Feb-02 03:33N 51°24' E 003°11'8 7.8
2016-Feb-02 02:34N 51°25' E 002°59'5 5.1
2016-Feb-02 01:32N 51°25' E 002°50'6 6.2
2016-Feb-02 00:33N 51°22' E 002°42'1010.4
2016-Feb-01 23:33N 51°21' E 002°26'1010.0
2016-Feb-01 22:33N 51°18' E 002°10'1010.0
2016-Feb-01 21:33N 51°26' E 001°59'1010.1
2016-Feb-01 20:33N 51°34' E 002°10'10 9.5
2016-Feb-01 19:32N 51°41' E 002°20'462 9.4
2016-Jan-30 18:33N 57°51' E 010°20'10 9.5
2016-Jan-30 17:33N 57°50' E 010°38'9 9.6
2016-Jan-30 16:33N 57°42' E 010°47'1111.3
2016-Jan-30 15:33N 57°34' E 011°03'1312.7
2016-Jan-30 14:33N 57°29' E 011°24'1212.5
2016-Jan-30 13:33N 57°18' E 011°33'1514.8
2016-Jan-30 12:33N 57°04' E 011°42'1212.3
2016-Jan-30 11:33N 56°52' E 011°49'1211.0
2016-Jan-30 10:29N 56°40' E 011°49'8510.6
2016-Jan-30 02:31N 55°20' E 011°02'8 8.6
2016-Jan-30 01:33N 55°11' E 011°03'8 8.2
2016-Jan-30 00:33N 55°03' E 010°60'10 9.9
2016-Jan-29 23:33N 54°54' E 010°52'10 9.8
2016-Jan-29 22:33N 54°45' E 010°48'10 9.7
2016-Jan-29 21:33N 54°37' E 010°57'1010.5
2016-Jan-29 20:33N 54°35' E 011°15'1111.2
2016-Jan-29 19:33N 54°30' E 011°32'1110.6
2016-Jan-29 18:33N 54°27' E 011°50'1110.7
2016-Jan-29 17:33N 54°26' E 012°08'6010.1
2016-Jan-29 11:33N 54°59' E 013°37'1111.3
2016-Jan-29 10:33N 55°02' E 013°55'1110.7
2016-Jan-29 09:33N 55°08' E 014°11'1111.1
2016-Jan-29 08:34N 55°17' E 014°23'1111.1
2016-Jan-29 07:33N 55°26' E 014°35'1111.2
2016-Jan-29 06:33N 55°31' E 014°52'1111.3
2016-Jan-29 05:33N 55°36' E 015°10'1111.3
2016-Jan-29 04:33N 55°40' E 015°29'35110.3
2016-Jan-27 18:32N 59°39' E 023°29'  

Dump ship's entire track history